Shavano Park, Texas
Current Conditions -  °F | °C
As of 9:51 PM on Tuesday 27 Jan 2015 (Local Time) from KSAT Reporting Station
Few Clouds Few Clouds  
Wind Chill: 57°   Ceiling: Unl
Heat Index: 57°   Visibility: 10mi
Dew Point: 42°   Wind: 3mph
Humidity: 57%   Direction: 320°NW
Pressure: 30.14"   Gusts: NA
Location:  29.5766°N, 98.5421°W
Report Text: KSAT 280351Z 32003KT 10SM FEW250 14/06 A3014 RMK AO2 SLP194 T01390056
Loading
Personal Weather Stations






























Interactive Weather Map New forecast layout! Learn more

10-Day Weather Forecast

Advertisements
Track Severe Weather on mobile